Time;durP1;ratioP1;P1;durP2;ratioP2;P2;SDS_P1;SDS_P2;PMS_P1;PMS_P2;Temp;Humidity;BMP_temperature;BMP_pressure;BME280_temperature;BME280_humidity;BME280_pressure;Samples;Min_cycle;Max_cycle;Signal;HPM_P1;HPM_P2
2022/12/24 00:00:11;;;;;;;16.33;9.80;;;;;;;2.42;nan;98549.72;5017448;28;20037;-72
2022/12/24 00:02:35;;;;;;;15.27;9.70;;;;;;;2.48;nan;98559.91;5014145;28;20071;-73
2022/12/24 00:05:00;;;;;;;19.05;11.90;;;;;;;2.45;nan;98539.03;5016580;28;20072;-72
2022/12/24 00:07:24;;;;;;;13.98;9.73;;;;;;;2.41;nan;98540.97;5036736;28;20552;-77
2022/12/24 00:09:49;;;;;;;16.05;10.68;;;;;;;2.46;nan;98546.84;5038622;28;20044;-75
2022/12/24 00:12:14;;;;;;;20.13;10.48;;;;;;;2.44;nan;98537.34;5020885;28;20079;-74
2022/12/24 00:14:38;;;;;;;14.70;8.57;;;;;;;2.53;nan;98545.56;5039451;28;20475;-75
2022/12/24 00:17:03;;;;;;;19.55;12.13;;;;;;;2.37;nan;98541.25;5038794;28;20044;-74
2022/12/24 00:19:27;;;;;;;23.38;12.80;;;;;;;2.26;nan;98543.63;5019407;28;20436;-72
2022/12/24 00:21:52;;;;;;;23.30;11.38;;;;;;;2.23;nan;98547.28;5038872;28;20044;-72
2022/12/24 00:24:17;;;;;;;17.52;9.65;;;;;;;2.28;nan;98557.53;5007447;28;20044;-72
2022/12/24 00:26:41;;;;;;;16.48;10.52;;;;;;;2.34;nan;98554.56;5035246;28;20052;-70
2022/12/24 00:29:06;;;;;;;16.95;9.80;;;;;;;2.50;nan;98555.41;5002477;28;20044;-71
2022/12/24 00:31:30;;;;;;;15.75;10.52;;;;;;;2.34;nan;98547.53;5037289;28;20119;-73
2022/12/24 00:33:55;;;;;;;14.80;10.00;;;;;;;2.34;nan;98559.84;5011802;28;20043;-72
2022/12/24 00:36:20;;;;;;;22.70;11.48;;;;;;;2.27;nan;98550.56;5030219;28;20052;-70
2022/12/24 00:38:45;;;;;;;20.95;11.30;;;;;;;2.24;nan;98556.00;5019533;28;20097;-72
2022/12/24 00:41:23;;;;;;;18.00;11.70;;;;;;;2.23;nan;98560.44;5027787;28;20062;-76
2022/12/24 00:43:59;;;;;;;21.00;10.95;;;;;;;2.29;nan;98559.22;5005110;28;20552;-79
2022/12/24 00:46:25;;;;;;;20.20;11.55;;;;;;;2.26;nan;98572.56;5028008;28;20131;-77
2022/12/24 00:48:50;;;;;;;17.85;11.65;;;;;;;2.36;nan;98566.72;5004534;28;20521;-77
2022/12/24 00:51:15;;;;;;;21.23;12.23;;;;;;;2.37;nan;98557.03;5035837;28;20383;-77
2022/12/24 00:53:40;;;;;;;17.38;11.15;;;;;;;2.32;nan;98559.91;5019926;28;20054;-80
2022/12/24 00:56:05;;;;;;;20.45;12.80;;;;;;;2.24;nan;98561.28;5036183;28;20048;-73
2022/12/24 00:58:30;;;;;;;19.20;10.55;;;;;;;2.25;nan;98560.34;5037084;28;20506;-76
2022/12/24 01:00:54;;;;;;;22.77;13.88;;;;;;;2.25;nan;98555.94;5019525;28;20499;-76
2022/12/24 01:03:19;;;;;;;16.27;10.05;;;;;;;2.31;nan;98554.72;5015453;28;20115;-76
2022/12/24 01:05:43;;;;;;;16.52;10.70;;;;;;;2.31;nan;98558.22;4999631;28;20064;-77
2022/12/24 01:08:08;;;;;;;24.27;13.05;;;;;;;2.23;nan;98562.19;5017047;28;20105;-74
2022/12/24 01:10:32;;;;;;;21.88;11.93;;;;;;;2.21;nan;98567.53;5023096;28;20048;-77
2022/12/24 01:13:01;;;;;;;19.88;12.32;;;;;;;2.23;nan;98556.94;5003694;28;20064;-77
2022/12/24 01:15:26;;;;;;;18.73;11.07;;;;;;;2.15;nan;98560.81;5004405;28;20483;-74
2022/12/24 01:17:50;;;;;;;18.70;12.48;;;;;;;2.17;nan;98551.06;5016689;28;20513;-74
2022/12/24 01:20:16;;;;;;;16.52;10.85;;;;;;;2.23;nan;98546.44;5010373;28;20426;-78
2022/12/24 01:22:41;;;;;;;21.33;12.65;;;;;;;2.16;nan;98548.53;5026179;28;20044;-75
2022/12/24 01:25:06;;;;;;;16.42;10.60;;;;;;;2.16;nan;98543.28;5000404;28;20051;-76
2022/12/24 01:27:32;;;;;;;18.48;10.40;;;;;;;2.17;nan;98542.34;5018482;28;20138;-73
2022/12/24 01:29:56;;;;;;;23.65;13.38;;;;;;;2.09;nan;98553.28;4998730;28;20468;-75
2022/12/24 01:32:21;;;;;;;18.27;11.55;;;;;;;2.09;nan;98549.81;5003330;28;20522;-74
2022/12/24 01:34:45;;;;;;;19.50;11.20;;;;;;;2.17;nan;98539.72;5025656;28;20040;-73
2022/12/24 01:37:10;;;;;;;21.63;13.23;;;;;;;2.01;nan;98538.88;5011597;28;20051;-80
2022/12/24 01:39:35;;;;;;;18.98;12.02;;;;;;;2.01;nan;98544.13;5011920;28;20040;-76
2022/12/24 01:44:49;;;;;;;17.88;11.65;;;;;;;2.16;nan;98546.75;5019698;28;20046;-78
2022/12/24 01:47:25;;;;;;;16.35;10.50;;;;;;;2.20;nan;98552.69;5006915;28;20043;-78
2022/12/24 01:49:54;;;;;;;20.23;11.05;;;;;;;2.24;nan;98551.59;5020233;28;20094;-76
2022/12/24 01:52:27;;;;;;;19.30;12.35;;;;;;;2.09;nan;98557.69;5021642;28;20047;-79
2022/12/24 01:54:57;;;;;;;16.92;10.98;;;;;;;2.24;nan;98559.50;4999437;28;20040;-72
2022/12/24 01:57:28;;;;;;;17.15;11.15;;;;;;;2.20;nan;98571.09;4994384;28;20458;-76
2022/12/24 01:59:57;;;;;;;24.38;14.55;;;;;;;2.15;nan;98573.13;5016885;28;20068;-72
2022/12/24 02:02:22;;;;;;;17.60;10.27;;;;;;;2.17;nan;98580.00;5009695;28;20136;-73
2022/12/24 02:04:55;;;;;;;20.60;10.80;;;;;;;2.11;nan;98577.72;5034365;28;20040;-74
2022/12/24 02:07:20;;;;;;;20.92;12.05;;;;;;;2.14;nan;98581.97;5028520;28;20033;-72
2022/12/24 02:09:46;;;;;;;20.55;10.68;;;;;;;2.12;nan;98574.16;5016307;28;20044;-75
2022/12/24 02:12:10;;;;;;;21.05;13.40;;;;;;;2.08;nan;98570.00;5027832;28;20040;-75
2022/12/24 02:14:36;;;;;;;19.27;10.90;;;;;;;2.19;nan;98583.41;5003929;28;20041;-79
2022/12/24 02:17:15;;;;;;;21.55;12.60;;;;;;;2.25;nan;98563.81;4981100;28;20128;-76
2022/12/24 02:19:45;;;;;;;20.17;11.85;;;;;;;2.27;nan;98571.59;4998278;28;20053;-74
2022/12/24 02:22:13;;;;;;;21.67;12.23;;;;;;;2.26;nan;98569.94;4986343;28;20466;-75
2022/12/24 02:24:59;;;;;;;23.58;13.45;;;;;;;2.16;nan;98580.06;5017914;28;20120;-77
2022/12/24 02:27:48;;;;;;;22.40;14.23;;;;;;;2.15;nan;98571.34;5014808;28;20032;-73
2022/12/24 02:30:20;;;;;;;18.75;10.95;;;;;;;2.29;nan;98570.59;5015192;28;20541;-78
2022/12/24 02:33:04;;;;;;;24.27;12.57;;;;;;;2.11;nan;98576.88;5020593;28;20091;-70
2022/12/24 02:35:50;;;;;;;20.75;12.70;;;;;;;2.24;nan;98575.28;5002185;28;20040;-74
2022/12/24 02:38:36;;;;;;;22.13;12.70;;;;;;;2.32;nan;98575.69;5007576;28;20047;-72
2022/12/24 02:41:11;;;;;;;19.10;11.10;;;;;;;2.24;nan;98570.00;5025216;28;20423;-73
2022/12/24 02:43:39;;;;;;;21.50;11.80;;;;;;;2.16;nan;98572.19;5023344;28;20071;-67
2022/12/24 02:46:09;;;;;;;22.98;13.90;;;;;;;2.15;nan;98573.13;5018821;28;20147;-75
2022/12/24 02:48:36;;;;;;;22.95;12.65;;;;;;;2.16;nan;98575.66;5035859;28;20873;-71
2022/12/24 02:51:04;;;;;;;25.40;14.27;;;;;;;2.19;nan;98566.78;5018185;28;20036;-77
2022/12/24 02:53:30;;;;;;;19.58;12.55;;;;;;;2.24;nan;98566.53;5023150;28;20033;-74
2022/12/24 02:56:16;;;;;;;24.65;14.88;;;;;;;2.24;nan;98561.28;5036069;28;20384;-76
2022/12/24 02:59:19;;;;;;;26.92;15.02;;;;;;;2.28;nan;98563.63;5031283;28;20062;-73
2022/12/24 03:01:50;;;;;;;26.92;14.75;;;;;;;2.32;nan;98562.53;4986409;28;20067;-75
2022/12/24 03:04:47;;;;;;;22.95;12.95;;;;;;;2.35;nan;98566.78;5010917;28;20518;-75
2022/12/24 03:07:15;;;;;;;17.75;11.48;;;;;;;2.37;nan;98571.00;5036055;28;20509;-78
2022/12/24 03:10:01;;;;;;;20.70;12.68;;;;;;;2.37;nan;98568.38;5015201;28;20040;-72
2022/12/24 03:12:32;;;;;;;29.90;16.40;;;;;;;2.26;nan;98573.38;5035250;28;20406;-73
2022/12/24 03:14:58;;;;;;;21.85;12.90;;;;;;;2.33;nan;98577.38;5023397;28;20514;-73
2022/12/24 03:17:22;;;;;;;25.63;14.75;;;;;;;2.32;nan;98577.47;5034959;28;20047;-77
2022/12/24 03:19:47;;;;;;;27.33;16.13;;;;;;;2.23;nan;98583.25;5037376;28;20045;-75
2022/12/24 03:22:12;;;;;;;27.35;15.60;;;;;;;2.29;nan;98572.38;5013033;28;20060;-73
2022/12/24 03:24:37;;;;;;;24.60;13.77;;;;;;;2.22;nan;98573.66;5018081;28;20041;-76
2022/12/24 03:27:04;;;;;;;25.80;15.63;;;;;;;2.22;nan;98566.63;4993895;28;20063;-73
2022/12/24 03:29:29;;;;;;;26.52;15.45;;;;;;;2.22;nan;98558.72;5018643;28;20037;-80
2022/12/24 03:31:59;;;;;;;25.60;13.40;;;;;;;2.39;nan;98566.50;5006584;28;20091;-78
2022/12/24 03:34:24;;;;;;;22.38;12.45;;;;;;;2.33;nan;98558.97;5009086;28;20060;-80
2022/12/24 03:36:48;;;;;;;20.17;12.68;;;;;;;2.31;nan;98562.63;5022865;28;20044;-77
2022/12/24 03:39:13;;;;;;;25.92;15.13;;;;;;;2.34;nan;98560.69;5003378;28;20037;-76
2022/12/24 03:41:38;;;;;;;23.50;13.05;;;;;;;2.31;nan;98574.00;5004269;28;20041;-80
2022/12/24 03:44:03;;;;;;;25.10;13.85;;;;;;;2.23;nan;98573.56;4986050;28;20084;-72
2022/12/24 03:46:27;;;;;;;24.77;13.82;;;;;;;2.16;nan;98572.19;4983425;28;20052;-69
2022/12/24 03:48:52;;;;;;;22.60;14.43;;;;;;;2.30;nan;98571.44;5012073;28;20043;-64
2022/12/24 03:51:21;;;;;;;23.15;13.55;;;;;;;2.34;nan;98570.34;5008772;28;20427;-64
2022/12/24 03:53:46;;;;;;;23.95;15.32;;;;;;;2.23;nan;98565.69;5000220;28;20047;-67
2022/12/24 03:56:11;;;;;;;26.25;15.80;;;;;;;2.11;nan;98571.59;5021145;28;20131;-64
2022/12/24 03:58:36;;;;;;;29.13;15.02;;;;;;;2.11;nan;98566.34;5022584;28;20047;-63
2022/12/24 04:01:00;;;;;;;25.67;13.63;;;;;;;2.07;nan;98560.41;4999420;28;20091;-63
2022/12/24 04:03:25;;;;;;;16.58;9.55;;;;;;;2.24;nan;98556.00;5016943;28;20446;-62
2022/12/24 04:06:05;;;;;;;23.80;14.02;;;;;;;2.25;nan;98553.31;5016974;28;20526;-63
2022/12/24 04:08:30;;;;;;;25.65;13.75;;;;;;;2.33;nan;98547.63;5017287;28;20037;-63
2022/12/24 04:10:55;;;;;;;29.63;15.18;;;;;;;2.28;nan;98550.47;5017980;28;20389;-63
2022/12/24 04:13:19;;;;;;;22.65;13.18;;;;;;;2.24;nan;98558.66;5013078;28;20033;-64
2022/12/24 04:15:44;;;;;;;28.77;16.00;;;;;;;2.03;nan;98563.31;5004436;28;20045;-62
2022/12/24 04:18:09;;;;;;;24.92;14.00;;;;;;;1.87;nan;98565.03;5017221;28;20037;-62
2022/12/24 04:20:33;;;;;;;21.20;10.65;;;;;;;2.09;nan;98557.69;4996627;28;20132;-63
2022/12/24 04:22:58;;;;;;;21.08;11.35;;;;;;;1.98;nan;98550.38;4976544;28;20128;-63
2022/12/24 04:25:23;;;;;;;22.92;13.15;;;;;;;1.99;nan;98545.97;5037381;28;20048;-63
2022/12/24 04:27:47;;;;;;;20.00;11.05;;;;;;;1.89;nan;98550.03;5015034;28;20408;-63
2022/12/24 04:30:12;;;;;;;23.60;12.85;;;;;;;1.82;nan;98546.88;5037336;28;20097;-63
2022/12/24 04:32:37;;;;;;;20.25;11.48;;;;;;;1.95;nan;98540.03;5036605;28;20048;-63
2022/12/24 04:35:02;;;;;;;20.02;12.43;;;;;;;2.15;nan;98538.94;5018605;28;20102;-63
2022/12/24 04:37:28;;;;;;;18.50;10.60;;;;;;;1.97;nan;98538.19;5036901;28;20067;-64
2022/12/24 04:39:52;;;;;;;19.50;11.38;;;;;;;2.01;nan;98536.25;5019241;28;20067;-64
2022/12/24 04:42:17;;;;;;;25.30;13.32;;;;;;;2.07;nan;98538.53;5037096;28;20080;-65
2022/12/24 04:44:42;;;;;;;21.55;13.18;;;;;;;2.03;nan;98548.34;5013222;28;20041;-64
2022/12/24 04:47:06;;;;;;;23.63;12.15;;;;;;;1.80;nan;98547.00;5028910;28;20481;-63
2022/12/24 04:49:31;;;;;;;26.88;15.48;;;;;;;1.77;nan;98541.88;5018735;28;20052;-64
2022/12/24 04:51:55;;;;;;;31.23;17.35;;;;;;;1.82;nan;98533.75;5041777;28;20558;-64
2022/12/24 04:54:20;;;;;;;18.90;8.93;;;;;;;1.95;nan;98545.28;5044711;28;20055;-63
2022/12/24 04:56:44;;;;;;;18.15;10.13;;;;;;;1.88;nan;98541.31;5038043;28;20099;-71
2022/12/24 04:59:09;;;;;;;20.50;11.25;;;;;;;1.85;nan;98532.72;4999464;28;20411;-74
2022/12/24 05:01:34;;;;;;;29.05;15.95;;;;;;;1.82;nan;98541.63;5026779;28;20040;-72
2022/12/24 05:03:58;;;;;;;28.05;14.80;;;;;;;2.01;nan;98539.72;5037490;28;20044;-72
2022/12/24 05:06:30;;;;;;;31.67;15.48;;;;;;;1.78;nan;98519.94;5018491;28;20036;-73
2022/12/24 05:08:56;;;;;;;27.48;16.30;;;;;;;1.68;nan;98529.25;5036368;28;20822;-70
2022/12/24 05:11:20;;;;;;;22.10;12.20;;;;;;;1.87;nan;98530.88;5036670;28;20036;-68
2022/12/24 05:13:46;;;;;;;27.55;14.95;;;;;;;1.80;nan;98531.22;5035516;28;20089;-73
2022/12/24 05:16:11;;;;;;;25.20;15.45;;;;;;;1.89;nan;98529.03;5037257;28;20237;-73
2022/12/24 05:18:36;;;;;;;26.08;15.18;;;;;;;1.94;nan;98519.94;5018942;28;20055;-73
2022/12/24 05:21:01;;;;;;;16.35;7.70;;;;;;;2.07;nan;98522.75;5005771;28;20048;-72
2022/12/24 05:26:21;;;;;;;28.52;15.18;;;;;;;1.86;nan;98530.03;5005813;28;20045;-72
2022/12/24 05:28:46;;;;;;;24.90;13.45;;;;;;;1.78;nan;98524.34;5036770;28;20384;-70
2022/12/24 05:31:11;;;;;;;23.48;14.40;;;;;;;1.81;nan;98511.00;5036261;28;20419;-71
2022/12/24 05:33:35;;;;;;;26.90;13.20;;;;;;;1.86;nan;98513.41;5036061;28;20039;-70
2022/12/24 05:36:00;;;;;;;21.75;11.98;;;;;;;2.01;nan;98523.09;5035861;28;20098;-69
2022/12/24 05:38:24;;;;;;;22.90;13.65;;;;;;;1.77;nan;98515.63;5035834;28;20037;-72
2022/12/24 05:40:49;;;;;;;21.27;12.18;;;;;;;1.80;nan;98511.97;5035687;28;20454;-72
2022/12/24 05:43:14;;;;;;;32.17;15.18;;;;;;;1.71;nan;98508.03;5036050;28;20553;-71
2022/12/24 05:45:38;;;;;;;23.17;12.48;;;;;;;1.92;nan;98513.91;5038105;28;20036;-68
2022/12/24 05:48:03;;;;;;;29.10;14.60;;;;;;;1.89;nan;98515.88;5019917;28;20041;-73
2022/12/24 05:50:27;;;;;;;22.05;11.93;;;;;;;1.86;nan;98514.25;5038287;28;20098;-73
2022/12/24 05:53:02;;;;;;;27.98;13.18;;;;;;;1.67;nan;98511.78;5037567;28;20032;-74
2022/12/24 05:55:27;;;;;;;22.58;12.95;;;;;;;1.67;nan;98524.91;5038040;28;20143;-73
2022/12/24 05:57:52;;;;;;;20.05;12.77;;;;;;;1.85;nan;98511.72;5015195;28;20071;-74
2022/12/24 06:00:16;;;;;;;23.88;12.55;;;;;;;1.74;nan;98523.66;5030254;28;20063;-73
2022/12/24 06:02:41;;;;;;;21.00;12.18;;;;;;;1.65;nan;98516.28;5037258;28;20049;-73
2022/12/24 06:05:06;;;;;;;20.73;12.23;;;;;;;1.75;nan;98512.22;5019477;28;20048;-73
2022/12/24 06:07:30;;;;;;;25.30;12.90;;;;;;;1.72;nan;98512.38;5036755;28;20091;-72
2022/12/24 06:09:55;;;;;;;26.45;13.88;;;;;;;1.85;nan;98511.72;5036821;28;20036;-73
2022/12/24 06:12:20;;;;;;;22.42;11.63;;;;;;;1.83;nan;98515.25;5001481;28;20029;-71
2022/12/24 06:14:44;;;;;;;27.30;14.82;;;;;;;1.72;nan;98512.38;5022308;28;20040;-71
2022/12/24 06:17:09;;;;;;;23.42;14.73;;;;;;;1.68;nan;98512.63;5018100;28;20044;-69
2022/12/24 06:19:34;;;;;;;21.92;12.35;;;;;;;1.90;nan;98514.94;5036139;28;20468;-71
2022/12/24 06:21:58;;;;;;;24.55;12.88;;;;;;;1.93;nan;98520.88;5007368;28;20060;-71
2022/12/24 06:24:23;;;;;;;27.65;15.88;;;;;;;1.73;nan;98521.09;5031791;28;20495;-72
2022/12/24 06:26:48;;;;;;;35.83;15.38;;;;;;;1.76;nan;98521.78;5036394;28;20040;-72
2022/12/24 06:29:13;;;;;;;28.80;15.32;;;;;;;1.71;nan;98513.31;5014498;28;20044;-72
2022/12/24 06:31:37;;;;;;;31.20;14.80;;;;;;;1.89;nan;98524.63;5036163;28;20035;-73
2022/12/24 06:34:02;;;;;;;26.67;12.38;;;;;;;1.82;nan;98515.34;5008217;28;20100;-72
2022/12/24 06:36:26;;;;;;;20.92;12.93;;;;;;;1.76;nan;98511.28;5011827;28;20056;-72
2022/12/24 06:38:53;;;;;;;19.35;10.65;;;;;;;1.97;nan;98513.69;5025266;28;20106;-72
2022/12/24 06:41:18;;;;;;;28.75;13.45;;;;;;;1.88;nan;98503.66;5035718;28;20045;-73
2022/12/24 06:43:48;;;;;;;25.67;14.15;;;;;;;1.81;nan;98522.38;5014864;28;20041;-73
2022/12/24 06:46:13;;;;;;;25.83;14.43;;;;;;;1.67;nan;98517.03;5012630;28;20044;-72
2022/12/24 06:48:37;;;;;;;20.00;11.27;;;;;;;1.68;nan;98507.38;5017725;28;20040;-72
2022/12/24 06:51:02;;;;;;;28.25;12.18;;;;;;;1.77;nan;98510.34;5041059;28;20124;-71
2022/12/24 06:53:27;;;;;;;26.48;14.38;;;;;;;1.79;nan;98513.75;5021817;28;20446;-72
2022/12/24 06:55:52;;;;;;;22.15;10.10;;;;;;;1.95;nan;98508.50;5034801;28;20427;-71
2022/12/24 06:58:16;;;;;;;24.20;12.88;;;;;;;1.95;nan;98502.38;5028340;28;20541;-72
2022/12/24 07:00:41;;;;;;;24.10;14.07;;;;;;;1.84;nan;98495.09;5017436;28;20048;-72
2022/12/24 07:03:06;;;;;;;26.70;15.20;;;;;;;1.81;nan;98498.72;5009125;28;20117;-70
2022/12/24 07:05:31;;;;;;;26.50;12.00;;;;;;;1.81;nan;98509.25;5030094;28;20067;-71
2022/12/24 07:07:56;;;;;;;19.80;10.77;;;;;;;1.69;nan;98502.03;5036112;28;20040;-74
2022/12/24 07:10:21;;;;;;;30.48;12.02;;;;;;;1.70;nan;98506.34;5021657;28;20141;-73
2022/12/24 07:12:45;;;;;;;23.67;13.18;;;;;;;1.76;nan;98503.41;5040750;28;20047;-72
2022/12/24 07:15:12;;;;;;;19.23;8.25;;;;;;;1.92;nan;98510.47;5019945;28;20074;-72
2022/12/24 07:17:37;;;;;;;25.15;13.82;;;;;;;1.89;nan;98508.84;4995069;28;20051;-71
2022/12/24 07:20:04;;;;;;;29.52;13.00;;;;;;;1.83;nan;98511.78;5046104;28;20044;-71
2022/12/24 07:22:28;;;;;;;32.75;18.23;;;;;;;1.71;nan;98504.56;5041035;28;20456;-70
2022/12/24 07:24:53;;;;;;;24.48;13.00;;;;;;;1.65;nan;98503.13;5043477;28;20047;-74
2022/12/24 07:27:17;;;;;;;24.77;10.55;;;;;;;1.86;nan;98502.91;5040489;28;20075;-71
2022/12/24 07:29:42;;;;;;;23.00;13.77;;;;;;;1.75;nan;98512.22;5039740;28;20124;-72
2022/12/24 07:32:07;;;;;;;30.52;16.58;;;;;;;1.81;nan;98498.72;5039108;28;20429;-73
2022/12/24 07:34:32;;;;;;;30.20;15.68;;;;;;;1.70;nan;98503.72;5020493;28;20159;-72
2022/12/24 07:36:57;;;;;;;27.73;14.32;;;;;;;1.76;nan;98508.66;5017990;28;20844;-72
2022/12/24 07:39:22;;;;;;;28.30;13.27;;;;;;;1.76;nan;98508.66;5018837;28;20525;-71
2022/12/24 07:41:47;;;;;;;15.82;9.75;;;;;;;1.90;nan;98512.31;5038170;28;20377;-72
2022/12/24 07:44:13;;;;;;;27.67;14.02;;;;;;;1.79;nan;98513.75;5037458;28;20036;-71
2022/12/24 07:46:38;;;;;;;29.77;13.57;;;;;;;1.74;nan;98515.78;5038558;28;20036;-71
2022/12/24 07:49:02;;;;;;;29.10;15.23;;;;;;;1.72;nan;98515.00;5020265;28;20089;-71
2022/12/24 07:51:27;;;;;;;30.90;16.65;;;;;;;1.66;nan;98514.50;5038456;28;20044;-72
2022/12/24 07:53:51;;;;;;;27.30;14.63;;;;;;;1.66;nan;98504.84;5037925;28;20083;-72
2022/12/24 07:56:16;;;;;;;25.25;12.55;;;;;;;1.72;nan;98501.88;5000440;28;20045;-72
2022/12/24 07:58:41;;;;;;;20.08;11.23;;;;;;;1.75;nan;98509.59;5031223;28;20502;-73
2022/12/24 08:01:07;;;;;;;24.20;14.10;;;;;;;1.61;nan;98508.63;5031367;28;20799;-74
2022/12/24 08:03:32;;;;;;;19.88;10.68;;;;;;;1.77;nan;98510.34;5009655;28;20041;-73
2022/12/24 08:05:57;;;;;;;24.25;12.55;;;;;;;1.75;nan;98520.09;5018366;28;20094;-74
2022/12/24 08:08:23;;;;;;;20.38;10.43;;;;;;;1.89;nan;98511.47;5037994;28;20044;-73
2022/12/24 08:10:47;;;;;;;16.27;9.25;;;;;;;2.01;nan;98512.59;5019981;28;20113;-73
2022/12/24 08:13:13;;;;;;;17.90;10.15;;;;;;;1.95;nan;98512.91;5037498;28;20036;-72
2022/12/24 08:15:38;;;;;;;17.55;10.68;;;;;;;1.90;nan;98510.53;5037392;28;20048;-73
2022/12/24 08:18:03;;;;;;;18.58;11.05;;;;;;;1.74;nan;98510.50;5036243;28;20036;-73
2022/12/24 08:20:27;;;;;;;16.15;8.85;;;;;;;1.94;nan;98505.94;5037728;28;20083;-73
2022/12/24 08:22:53;;;;;;;17.08;10.32;;;;;;;2.01;nan;98513.44;5037115;28;20113;-73
2022/12/24 08:25:19;;;;;;;24.17;13.50;;;;;;;1.99;nan;98506.56;5037460;28;20044;-74
2022/12/24 08:27:43;;;;;;;18.17;10.68;;;;;;;1.90;nan;98500.03;5037832;28;20123;-72
2022/12/24 08:30:09;;;;;;;17.60;9.40;;;;;;;2.00;nan;98503.00;5019455;28;20140;-73
2022/12/24 08:32:33;;;;;;;22.05;8.68;;;;;;;1.93;nan;98506.88;5037525;28;20106;-72
2022/12/24 08:34:58;;;;;;;16.10;10.05;;;;;;;1.83;nan;98506.53;5038807;28;20048;-72
2022/12/24 08:37:23;;;;;;;14.70;9.13;;;;;;;1.77;nan;98502.47;5038430;28;20127;-71
2022/12/24 08:39:47;;;;;;;17.58;10.32;;;;;;;1.91;nan;98501.72;5002962;28;20093;-71
2022/12/24 08:42:12;;;;;;;20.20;11.98;;;;;;;1.75;nan;98501.69;5010595;28;20032;-72
2022/12/24 08:44:37;;;;;;;17.95;10.07;;;;;;;1.81;nan;98498.72;5031878;28;20040;-71
2022/12/24 08:47:02;;;;;;;14.43;9.70;;;;;;;1.77;nan;98502.47;5036016;28;20048;-72
2022/12/24 08:49:27;;;;;;;15.38;9.75;;;;;;;1.82;nan;98484.66;4999762;28;20791;-73
2022/12/24 08:51:52;;;;;;;12.55;8.88;;;;;;;1.66;nan;98491.69;5032039;28;20908;-71
2022/12/24 08:54:16;;;;;;;14.85;8.32;;;;;;;1.81;nan;98490.84;4986354;28;20040;-73
2022/12/24 08:56:41;;;;;;;14.63;10.15;;;;;;;1.77;nan;98485.88;4999414;28;20044;-72
2022/12/24 08:59:06;;;;;;;14.65;9.70;;;;;;;1.72;nan;98491.34;5017139;28;20044;-73
2022/12/24 09:01:31;;;;;;;13.48;8.45;;;;;;;1.78;nan;98491.03;5036588;28;20044;-72
2022/12/24 09:03:56;;;;;;;17.98;10.13;;;;;;;1.85;nan;98485.44;5036132;28;20032;-73
2022/12/24 09:06:22;;;;;;;15.95;10.13;;;;;;;1.81;nan;98484.75;5010745;28;20426;-73
2022/12/24 09:08:47;;;;;;;16.38;10.50;;;;;;;1.91;nan;98483.34;5030561;28;20043;-73
2022/12/24 09:11:15;;;;;;;16.52;10.23;;;;;;;1.94;nan;98500.69;4999023;28;20040;-74
2022/12/24 09:13:40;;;;;;;21.08;10.52;;;;;;;1.92;nan;98484.19;5028698;28;20041;-74
2022/12/24 09:16:06;;;;;;;16.48;10.35;;;;;;;1.92;nan;98494.69;5018430;28;20078;-72
2022/12/24 09:18:31;;;;;;;15.95;9.73;;;;;;;2.00;nan;98484.59;5036375;28;20249;-74
2022/12/24 09:21:01;;;;;;;17.17;10.38;;;;;;;1.88;nan;98480.88;5036213;28;20463;-73
2022/12/24 09:23:26;;;;;;;13.35;8.45;;;;;;;2.03;nan;98480.00;5036302;28;20492;-72
2022/12/24 09:25:51;;;;;;;17.38;9.77;;;;;;;1.91;nan;98480.72;4960193;28;20050;-70
2022/12/24 09:28:15;;;;;;;12.90;7.38;;;;;;;2.11;nan;98476.97;4955258;28;20066;-72
2022/12/24 09:30:41;;;;;;;13.23;8.93;;;;;;;1.94;nan;98474.41;4954933;28;20061;-72
2022/12/24 09:33:06;;;;;;;20.17;11.70;;;;;;;1.62;nan;98470.91;4938688;28;20525;-72
2022/12/24 09:35:30;;;;;;;15.50;9.25;;;;;;;1.77;nan;98468.31;4954587;28;20496;-72
2022/12/24 09:38:01;;;;;;;19.63;10.98;;;;;;;1.75;nan;98470.19;4968637;28;20049;-69
2022/12/24 09:40:34;;;;;;;19.88;12.02;;;;;;;1.73;nan;98472.03;4954284;28;20064;-71
2022/12/24 09:42:59;;;;;;;19.08;10.77;;;;;;;1.74;nan;98468.47;4955575;28;20128;-71
2022/12/24 09:45:33;;;;;;;17.75;9.15;;;;;;;1.86;nan;98466.09;4967141;28;20050;-70
2022/12/24 09:48:09;;;;;;;17.75;11.45;;;;;;;1.83;nan;98475.84;4954678;28;20046;-73
2022/12/24 09:50:48;;;;;;;22.48;11.30;;;;;;;1.66;nan;98470.69;4968649;28;20132;-71
2022/12/24 09:53:23;;;;;;;16.42;10.60;;;;;;;1.69;nan;98473.13;4938542;28;20046;-72
2022/12/24 09:55:53;;;;;;;18.27;9.88;;;;;;;1.77;nan;98468.31;4958563;28;20069;-73
2022/12/24 09:58:26;;;;;;;17.17;10.50;;;;;;;1.62;nan;98471.78;5026791;28;20047;-71
2022/12/24 10:00:52;;;;;;;20.10;9.73;;;;;;;1.59;nan;98473.69;5013962;28;20094;-71
2022/12/24 10:03:17;;;;;;;20.73;11.95;;;;;;;1.29;nan;98476.19;5008126;28;20131;-73
2022/12/24 10:06:00;;;;;;;17.38;10.52;;;;;;;1.40;nan;98474.69;5035526;28;20198;-73
2022/12/24 10:08:28;;;;;;;14.35;9.00;;;;;;;1.32;nan;98469.00;5035427;28;20086;-72
2022/12/24 10:10:58;;;;;;;14.90;10.30;;;;;;;1.21;nan;98473.97;5035789;28;20036;-73
2022/12/24 10:13:41;;;;;;;12.95;8.70;;;;;;;1.18;nan;98476.75;5034326;28;20044;-73
2022/12/24 10:16:39;;;;;;;15.25;9.00;;;;;;;1.06;nan;98469.50;5035338;28;20072;-72
2022/12/24 10:19:18;;;;;;;14.65;9.52;;;;;;;0.99;nan;98471.63;4918706;28;20062;-73
2022/12/24 10:22:03;;;;;;;13.82;8.80;;;;;;;0.94;nan;98476.25;4935028;28;20522;-74
2022/12/24 10:25:12;;;;;;;14.15;9.30;;;;;;;0.96;nan;98477.03;4918955;28;20218;-74
2022/12/24 10:27:39;;;;;;;14.52;8.85;;;;;;;1.02;nan;98465.34;4879776;29;20538;-72
2022/12/24 10:30:14;;;;;;;14.55;9.50;;;;;;;0.95;nan;98467.44;4899018;29;20051;-72
2022/12/24 10:32:40;;;;;;;12.88;8.60;;;;;;;1.02;nan;98476.69;4881159;29;20142;-72
2022/12/24 10:35:14;;;;;;;19.05;10.85;;;;;;;0.91;nan;98468.53;4896961;29;20483;-73
2022/12/24 10:37:41;;;;;;;15.25;9.13;;;;;;;0.94;nan;98473.63;4896866;29;20459;-74
2022/12/24 10:40:13;;;;;;;14.40;8.43;;;;;;;0.89;nan;98465.16;4896532;29;20107;-71
2022/12/24 10:42:41;;;;;;;14.35;8.63;;;;;;;1.00;nan;98464.59;4896365;29;20063;-71
2022/12/24 10:45:07;;;;;;;18.45;10.73;;;;;;;1.04;nan;98468.75;4893421;29;20524;-71
2022/12/24 10:47:36;;;;;;;14.00;8.20;;;;;;;1.04;nan;98466.97;4872042;29;20106;-72
2022/12/24 10:50:09;;;;;;;18.85;9.32;;;;;;;1.05;nan;98471.28;4896074;29;20549;-72
2022/12/24 10:52:36;;;;;;;;;;;;;;;1.18;nan;98470.66;4896858;29;20044;-73
2022/12/24 10:55:16;;;;;;;16.63;10.50;;;;;;;1.24;nan;98478.22;4902747;28;19962;-72
2022/12/24 10:57:42;;;;;;;15.23;9.88;;;;;;;1.15;nan;98469.03;4959884;28;20065;-65
2022/12/24 11:00:18;;;;;;;13.55;8.55;;;;;;;1.20;nan;98477.53;4973627;28;20492;-64
2022/12/24 11:02:46;;;;;;;16.08;9.43;;;;;;;1.12;nan;98478.88;4973760;28;20129;-64
2022/12/24 11:05:43;;;;;;;12.43;8.60;;;;;;;1.24;nan;98486.09;5015858;28;20457;-63
2022/12/24 11:08:11;;;;;;;16.77;10.15;;;;;;;1.19;nan;98486.31;4934511;28;20138;-64
2022/12/24 11:10:40;;;;;;;15.35;9.90;;;;;;;1.14;nan;98480.47;4917969;28;20054;-64
2022/12/24 11:13:04;;;;;;;15.82;9.32;;;;;;;1.19;nan;98495.97;4933996;28;20046;-64
2022/12/24 11:15:33;;;;;;;15.02;8.75;;;;;;;1.23;nan;98493.13;4902075;28;20043;-65
2022/12/24 11:18:03;;;;;;;17.48;10.32;;;;;;;1.21;nan;98505.47;4933903;28;20053;-66
2022/12/24 11:20:31;;;;;;;17.52;10.82;;;;;;;1.17;nan;98497.81;4901930;28;20076;-65
2022/12/24 11:22:56;;;;;;;18.50;9.90;;;;;;;1.23;nan;98518.53;4933958;28;20051;-64
2022/12/24 11:25:30;;;;;;;20.58;12.40;;;;;;;1.13;nan;98504.19;4934285;28;20062;-63
2022/12/24 11:27:55;;;;;;;18.98;11.55;;;;;;;1.17;nan;98495.22;4933871;28;20043;-65
2022/12/24 11:30:29;;;;;;;12.55;8.68;;;;;;;1.21;nan;98494.13;4933665;28;20161;-65
2022/12/24 11:32:59;;;;;;;13.48;8.43;;;;;;;1.33;nan;98502.22;4917945;28;20073;-65
2022/12/24 11:35:25;;;;;;;13.95;9.40;;;;;;;1.17;nan;98503.06;4934545;28;20078;-65
2022/12/24 11:37:58;;;;;;;14.38;8.27;;;;;;;1.29;nan;98507.69;4936687;28;20051;-63
2022/12/24 11:40:25;;;;;;;17.63;8.90;;;;;;;1.23;nan;98516.75;4935229;28;20035;-64
2022/12/24 11:42:52;;;;;;;16.35;8.93;;;;;;;1.27;nan;98512.16;4947364;28;20522;-65
2022/12/24 11:45:21;;;;;;;16.02;8.30;;;;;;;1.24;nan;98515.78;5033815;28;20087;-63
2022/12/24 11:47:46;;;;;;;14.02;7.85;;;;;;;1.25;nan;98514.88;5034448;28;20048;-67
2022/12/24 11:50:20;;;;;;;20.60;8.68;;;;;;;1.26;nan;98523.59;5023860;28;20094;-65